Time;durP1;ratioP1;P1;durP2;ratioP2;P2;SDS_P1;SDS_P2;PMS_P1;PMS_P2;Temp;Humidity;BMP_temperature;BMP_pressure;BME280_temperature;BME280_humidity;BME280_pressure;Samples;Min_cycle;Max_cycle;Signal;HPM_P1;HPM_P2
2023/12/02 00:00:35;;;;;;;3.33;3.03;;;1.00;99.90;;;;;;5022340;28;20430;-58
2023/12/02 00:03:00;;;;;;;4.20;3.13;;;1.00;99.90;;;;;;5027668;28;20766;-57
2023/12/02 00:05:26;;;;;;;2.87;2.57;;;0.90;99.90;;;;;;5024674;28;20502;-57
2023/12/02 00:07:52;;;;;;;2.63;2.43;;;0.90;99.90;;;;;;5023339;28;20299;-57
2023/12/02 00:10:18;;;;;;;4.80;2.87;;;0.90;99.90;;;;;;5015254;28;20171;-58
2023/12/02 00:12:43;;;;;;;3.50;2.97;;;0.90;99.90;;;;;;5021560;28;20788;-57
2023/12/02 00:15:09;;;;;;;3.40;3.10;;;0.90;99.90;;;;;;5023388;28;20403;-57
2023/12/02 00:17:35;;;;;;;3.17;2.87;;;0.90;99.90;;;;;;5026768;28;20179;-59
2023/12/02 00:20:00;;;;;;;3.53;2.67;;;0.90;99.90;;;;;;5025177;28;20178;-57
2023/12/02 00:22:26;;;;;;;3.23;2.60;;;0.90;99.90;;;;;;5029493;28;20193;-58
2023/12/02 00:24:52;;;;;;;3.57;3.20;;;1.00;99.90;;;;;;5019173;28;20186;-58
2023/12/02 00:27:18;;;;;;;6.67;2.90;;;0.90;99.90;;;;;;5019112;28;20202;-56
2023/12/02 00:29:44;;;;;;;3.57;3.10;;;0.90;99.90;;;;;;5021984;28;20635;-57
2023/12/02 00:32:10;;;;;;;3.50;2.70;;;0.90;99.90;;;;;;5027518;28;20482;-57
2023/12/02 00:34:35;;;;;;;3.10;2.70;;;0.90;99.90;;;;;;5028556;28;20194;-58
2023/12/02 00:37:01;;;;;;;3.63;2.83;;;0.90;99.90;;;;;;5021997;28;20187;-57
2023/12/02 00:39:27;;;;;;;3.23;2.70;;;0.90;99.90;;;;;;5023448;28;20175;-56
2023/12/02 00:41:53;;;;;;;3.57;2.90;;;0.90;99.90;;;;;;5025461;28;20193;-58
2023/12/02 00:44:19;;;;;;;4.33;2.90;;;0.90;99.90;;;;;;5017611;28;21366;-57
2023/12/02 00:46:45;;;;;;;2.43;2.33;;;0.90;99.90;;;;;;5011383;28;20282;-57
2023/12/02 00:49:11;;;;;;;3.97;2.50;;;0.90;99.90;;;;;;5018294;28;20524;-57
2023/12/02 00:51:36;;;;;;;3.10;2.80;;;0.90;99.90;;;;;;5017574;28;20772;-57
2023/12/02 00:54:02;;;;;;;3.23;2.70;;;0.90;99.90;;;;;;5022693;28;20206;-57
2023/12/02 00:56:28;;;;;;;3.37;3.07;;;0.90;99.90;;;;;;5035016;28;20181;-59
2023/12/02 00:58:53;;;;;;;2.60;2.40;;;0.80;99.90;;;;;;5018552;28;20539;-58
2023/12/02 01:01:19;;;;;;;3.30;3.10;;;0.80;99.90;;;;;;5018297;28;20272;-57
2023/12/02 01:03:45;;;;;;;4.00;2.93;;;0.80;99.90;;;;;;5019490;28;20584;-58
2023/12/02 01:06:11;;;;;;;4.13;3.37;;;0.80;99.90;;;;;;5023484;28;20693;-58
2023/12/02 01:08:37;;;;;;;2.73;2.50;;;0.80;99.90;;;;;;5018886;28;20418;-59
2023/12/02 01:11:02;;;;;;;3.53;2.80;;;0.80;99.90;;;;;;5007545;28;20183;-59
2023/12/02 01:13:28;;;;;;;2.87;2.67;;;0.80;99.90;;;;;;5004717;28;20770;-58
2023/12/02 01:15:54;;;;;;;3.67;2.83;;;0.80;99.90;;;;;;5022716;28;20191;-57
2023/12/02 01:18:19;;;;;;;3.07;2.87;;;0.80;99.90;;;;;;5017608;28;20534;-58
2023/12/02 01:20:45;;;;;;;4.57;3.20;;;0.80;99.90;;;;;;5005187;28;20180;-58
2023/12/02 01:23:10;;;;;;;2.90;2.50;;;0.80;99.90;;;;;;5009612;28;20249;-58
2023/12/02 01:25:36;;;;;;;3.10;2.80;;;0.80;99.90;;;;;;5010800;28;20182;-58
2023/12/02 01:28:02;;;;;;;4.73;3.20;;;0.70;99.90;;;;;;5014688;28;20769;-58
2023/12/02 01:30:27;;;;;;;3.20;2.90;;;0.70;99.90;;;;;;5006925;28;20179;-57
2023/12/02 01:32:53;;;;;;;3.00;2.80;;;0.70;99.90;;;;;;4995916;28;20200;-58
2023/12/02 01:35:19;;;;;;;4.50;3.47;;;0.60;99.90;;;;;;5010677;28;20234;-58
2023/12/02 01:37:44;;;;;;;3.23;2.93;;;0.60;99.90;;;;;;5010147;28;20938;-58
2023/12/02 01:40:12;;;;;;;3.53;2.97;;;0.60;99.90;;;;;;5008626;28;20205;-57
2023/12/02 01:42:38;;;;;;;3.37;2.90;;;0.60;99.90;;;;;;5000424;28;20223;-58
2023/12/02 01:45:04;;;;;;;3.47;3.00;;;0.60;99.90;;;;;;5008868;28;20410;-56
2023/12/02 01:47:30;;;;;;;3.23;2.70;;;0.60;99.90;;;;;;5007467;28;20454;-58
2023/12/02 01:49:59;;;;;;;3.47;2.67;;;0.60;99.90;;;;;;5011716;28;20429;-58
2023/12/02 01:52:25;;;;;;;3.23;2.17;;;0.60;99.90;;;;;;5003019;28;20207;-59
2023/12/02 01:54:51;;;;;;;5.40;2.97;;;0.60;99.90;;;;;;5006752;28;20436;-58
2023/12/02 01:57:16;;;;;;;3.00;2.70;;;0.60;99.90;;;;;;5008101;28;20451;-56
2023/12/02 01:59:51;;;;;;;7.70;3.00;;;0.60;99.90;;;;;;5008111;28;20183;-59
2023/12/02 02:02:17;;;;;;;3.47;3.17;;;0.60;99.90;;;;;;5002535;28;20183;-58
2023/12/02 02:04:43;;;;;;;3.43;3.00;;;0.60;99.90;;;;;;5007277;28;20472;-59
2023/12/02 02:07:08;;;;;;;3.83;3.00;;;0.60;99.90;;;;;;4996812;28;20665;-59
2023/12/02 02:09:34;;;;;;;4.00;3.03;;;0.50;99.90;;;;;;5004982;28;20176;-58
2023/12/02 02:12:01;;;;;;;4.50;2.87;;;0.50;99.90;;;;;;5004275;28;20187;-59
2023/12/02 02:14:27;;;;;;;4.43;3.30;;;0.50;99.90;;;;;;5012933;28;20433;-59
2023/12/02 02:16:52;;;;;;;5.27;3.33;;;0.50;99.90;;;;;;5007818;28;20438;-58
2023/12/02 02:19:18;;;;;;;3.97;3.57;;;0.50;99.90;;;;;;5006906;28;20417;-57
2023/12/02 02:21:44;;;;;;;3.53;3.23;;;0.50;99.90;;;;;;5009898;28;20170;-58
2023/12/02 02:24:10;;;;;;;4.00;3.20;;;0.40;99.90;;;;;;5006407;28;20456;-60
2023/12/02 02:26:35;;;;;;;4.27;3.50;;;0.40;99.90;;;;;;5006645;28;20210;-59
2023/12/02 02:29:01;;;;;;;4.83;3.37;;;0.40;99.90;;;;;;5007090;28;20718;-58
2023/12/02 02:31:26;;;;;;;5.20;3.30;;;0.40;99.90;;;;;;5006901;28;20190;-59
2023/12/02 02:33:52;;;;;;;4.33;3.50;;;0.40;99.90;;;;;;5002062;28;20195;-59
2023/12/02 02:36:18;;;;;;;6.37;4.13;;;0.30;99.90;;;;;;4999081;28;20306;-57
2023/12/02 02:38:44;;;;;;;5.80;3.60;;;0.30;99.90;;;;;;5003332;28;20210;-58
2023/12/02 02:41:09;;;;;;;5.23;3.33;;;0.40;99.90;;;;;;4997791;28;20422;-59
2023/12/02 02:43:35;;;;;;;3.53;2.60;;;0.40;99.90;;;;;;5009705;28;20210;-58
2023/12/02 02:46:01;;;;;;;6.40;3.33;;;0.30;99.90;;;;;;5005690;28;20183;-59
2023/12/02 02:48:27;;;;;;;5.20;3.63;;;0.30;99.90;;;;;;5007120;28;20174;-58
2023/12/02 02:50:52;;;;;;;4.43;3.57;;;0.30;99.90;;;;;;5002004;28;20414;-59
2023/12/02 02:53:18;;;;;;;3.83;3.37;;;0.30;99.90;;;;;;5002813;28;20199;-58
2023/12/02 02:55:45;;;;;;;3.70;2.83;;;0.30;99.90;;;;;;5008077;28;20206;-58
2023/12/02 02:58:11;;;;;;;4.00;3.43;;;0.30;99.90;;;;;;5010548;28;20266;-59
2023/12/02 03:00:36;;;;;;;4.67;3.53;;;0.40;99.90;;;;;;5012702;28;20508;-59
2023/12/02 03:03:02;;;;;;;4.73;3.93;;;0.30;99.90;;;;;;4999632;28;21032;-59
2023/12/02 03:05:27;;;;;;;6.43;4.00;;;0.30;99.90;;;;;;5004428;28;20253;-58
2023/12/02 03:07:53;;;;;;;4.80;3.50;;;0.40;99.90;;;;;;5008836;28;20199;-58
2023/12/02 03:10:19;;;;;;;3.73;3.33;;;0.40;99.90;;;;;;5012837;28;20202;-58
2023/12/02 03:12:44;;;;;;;5.60;3.40;;;0.40;99.90;;;;;;5000735;28;20230;-59
2023/12/02 03:15:10;;;;;;;4.30;3.60;;;0.40;99.90;;;;;;5001749;28;20182;-58
2023/12/02 03:17:36;;;;;;;4.57;3.27;;;0.40;99.90;;;;;;5005193;28;20175;-58
2023/12/02 03:20:01;;;;;;;3.57;3.07;;;0.40;99.90;;;;;;5008437;28;20514;-57
2023/12/02 03:22:27;;;;;;;3.30;2.93;;;0.40;99.90;;;;;;5002139;28;20700;-59
2023/12/02 03:24:52;;;;;;;4.43;3.70;;;0.40;99.90;;;;;;5005180;28;20177;-58
2023/12/02 03:27:18;;;;;;;4.63;3.33;;;0.30;99.90;;;;;;5008374;28;20214;-57
2023/12/02 03:29:43;;;;;;;3.20;2.83;;;0.30;99.90;;;;;;5012973;28;20638;-59
2023/12/02 03:32:09;;;;;;;4.60;3.60;;;0.30;99.90;;;;;;5008305;28;20253;-59
2023/12/02 03:34:34;;;;;;;6.50;4.40;;;0.30;99.90;;;;;;5005665;28;20203;-60
2023/12/02 03:37:00;;;;;;;5.50;3.90;;;0.30;99.90;;;;;;5013804;28;20214;-57
2023/12/02 03:39:26;;;;;;;6.30;3.97;;;0.20;99.90;;;;;;4997408;28;20588;-58
2023/12/02 03:41:51;;;;;;;6.17;4.03;;;0.20;99.90;;;;;;5002999;28;20253;-58
2023/12/02 03:44:17;;;;;;;5.67;3.73;;;0.20;99.90;;;;;;5009192;28;20289;-58
2023/12/02 03:46:43;;;;;;;5.23;3.73;;;0.20;99.90;;;;;;5008496;28;20210;-58
2023/12/02 03:49:09;;;;;;;4.50;3.20;;;0.20;99.90;;;;;;5002580;28;20189;-57
2023/12/02 03:51:34;;;;;;;3.83;3.43;;;0.30;99.90;;;;;;5007283;28;20417;-57
2023/12/02 03:54:00;;;;;;;4.67;3.87;;;0.30;99.90;;;;;;5003630;28;20203;-58
2023/12/02 03:56:26;;;;;;;3.50;3.03;;;0.30;99.90;;;;;;5002942;28;20258;-60
2023/12/02 03:58:51;;;;;;;6.00;4.13;;;0.20;99.90;;;;;;5006186;28;20557;-58
2023/12/02 04:01:17;;;;;;;5.43;4.00;;;0.30;99.90;;;;;;5006299;28;20270;-58
2023/12/02 04:03:44;;;;;;;4.03;3.60;;;0.20;99.90;;;;;;5015354;28;20203;-58
2023/12/02 04:06:10;;;;;;;5.87;4.10;;;0.20;99.90;;;;;;5004419;28;20436;-58
2023/12/02 04:08:35;;;;;;;6.53;4.13;;;0.30;99.90;;;;;;5008809;28;20422;-56
2023/12/02 04:11:01;;;;;;;8.83;4.60;;;0.20;99.90;;;;;;5001681;28;20171;-58
2023/12/02 04:13:27;;;;;;;6.60;4.50;;;0.20;99.90;;;;;;5004231;28;20221;-59
2023/12/02 04:15:53;;;;;;;6.10;3.90;;;0.20;99.90;;;;;;5003105;28;20207;-58
2023/12/02 04:18:19;;;;;;;9.37;5.03;;;0.20;99.90;;;;;;5005236;28;21039;-58
2023/12/02 04:20:44;;;;;;;6.50;4.70;;;0.20;99.90;;;;;;4998964;28;20182;-60
2023/12/02 04:23:10;;;;;;;5.07;4.27;;;0.10;99.90;;;;;;4999846;28;20785;-59
2023/12/02 04:25:38;;;;;;;7.53;5.67;;;0.10;99.90;;;;;;5011182;28;20179;-58
2023/12/02 04:28:04;;;;;;;7.40;4.83;;;0.10;99.90;;;;;;5010404;28;20211;-58
2023/12/02 04:30:29;;;;;;;8.50;5.07;;;0.10;99.90;;;;;;5001494;28;20501;-58
2023/12/02 04:32:55;;;;;;;9.10;5.83;;;0.00;99.90;;;;;;4999229;28;20205;-58
2023/12/02 04:35:20;;;;;;;9.73;5.67;;;0.00;99.90;;;;;;5008954;28;20716;-57
2023/12/02 04:37:46;;;;;;;7.33;4.87;;;0.00;99.90;;;;;;5010536;28;20674;-58
2023/12/02 04:40:11;;;;;;;7.93;5.47;;;0.00;99.90;;;;;;4999374;28;20191;-58
2023/12/02 04:42:41;;;;;;;8.40;5.50;;;0.00;99.90;;;;;;5001781;28;20210;-59
2023/12/02 04:45:08;;;;;;;5.40;4.03;;;0.00;99.90;;;;;;5013587;28;20749;-58
2023/12/02 04:47:36;;;;;;;8.13;4.90;;;0.00;99.90;;;;;;5006281;28;20709;-58
2023/12/02 04:50:03;;;;;;;7.97;5.33;;;0.00;99.90;;;;;;5013813;28;20436;-58
2023/12/02 04:52:30;;;;;;;9.37;5.20;;;0.00;99.90;;;;;;5005745;28;20456;-57
2023/12/02 04:54:55;;;;;;;9.60;5.33;;;0.00;99.90;;;;;;5001574;28;20441;-59
2023/12/02 04:57:21;;;;;;;6.67;4.60;;;0.00;99.90;;;;;;5006483;28;20457;-57
2023/12/02 04:59:47;;;;;;;7.20;4.63;;;0.00;99.90;;;;;;5011826;28;20182;-57
2023/12/02 05:02:12;;;;;;;6.80;4.73;;;0.10;99.90;;;;;;5003283;28;20191;-58
2023/12/02 05:04:38;;;;;;;7.43;5.03;;;0.10;99.90;;;;;;5008661;28;20438;-59
2023/12/02 05:07:04;;;;;;;7.27;4.80;;;0.00;99.90;;;;;;5004596;28;20210;-58
2023/12/02 05:09:29;;;;;;;7.10;4.80;;;0.00;99.90;;;;;;5013775;28;20184;-58
2023/12/02 05:11:55;;;;;;;6.90;5.00;;;0.00;99.90;;;;;;5009886;28;20174;-59
2023/12/02 05:14:21;;;;;;;7.90;4.80;;;0.00;99.90;;;;;;4994853;28;20231;-58
2023/12/02 05:16:46;;;;;;;6.97;4.53;;;0.00;99.90;;;;;;5001643;28;20187;-58
2023/12/02 05:19:12;;;;;;;6.90;4.70;;;0.00;99.90;;;;;;5005471;28;20265;-58
2023/12/02 05:21:38;;;;;;;7.17;5.03;;;-0.10;99.90;;;;;;5009520;28;20500;-57
2023/12/02 05:24:04;;;;;;;6.73;4.77;;;0.00;99.90;;;;;;4994884;28;20635;-58
2023/12/02 05:26:29;;;;;;;5.03;3.90;;;-0.10;99.90;;;;;;5004178;28;20520;-59
2023/12/02 05:28:55;;;;;;;5.20;4.07;;;-0.10;99.90;;;;;;5003034;28;20199;-58
2023/12/02 05:31:21;;;;;;;6.60;4.77;;;-0.10;99.90;;;;;;5003776;28;20585;-59
2023/12/02 05:33:47;;;;;;;6.60;4.37;;;-0.10;99.90;;;;;;5003098;28;20581;-58
2023/12/02 05:36:13;;;;;;;6.90;4.50;;;-0.10;99.90;;;;;;5010860;28;20433;-58
2023/12/02 05:38:38;;;;;;;9.97;6.20;;;-0.10;99.90;;;;;;5007471;28;20182;-58
2023/12/02 05:41:04;;;;;;;10.30;5.43;;;-0.10;99.90;;;;;;5004699;28;20757;-59
2023/12/02 05:43:30;;;;;;;7.43;5.67;;;-0.10;99.90;;;;;;5010231;28;20681;-57
2023/12/02 05:45:56;;;;;;;8.00;5.50;;;-0.10;99.90;;;;;;5008861;28;20430;-58
2023/12/02 05:48:22;;;;;;;7.50;5.20;;;-0.10;99.90;;;;;;5007275;28;21084;-59
2023/12/02 05:50:47;;;;;;;6.47;4.87;;;-0.10;99.90;;;;;;5002154;28;20183;-59
2023/12/02 05:53:13;;;;;;;9.60;5.70;;;-0.20;99.90;;;;;;5004967;28;20268;-59
2023/12/02 05:55:38;;;;;;;6.70;4.60;;;-0.20;99.90;;;;;;5007750;28;20175;-58
2023/12/02 05:58:04;;;;;;;7.37;4.87;;;-0.20;99.90;;;;;;5007360;28;20594;-58
2023/12/02 06:00:29;;;;;;;7.93;5.17;;;-0.20;99.90;;;;;;5005625;28;20267;-59
2023/12/02 06:02:55;;;;;;;6.60;4.53;;;-0.30;99.90;;;;;;4997242;28;20204;-59
2023/12/02 06:05:21;;;;;;;8.93;4.83;;;-0.30;99.90;;;;;;5000939;28;20253;-57
2023/12/02 06:07:46;;;;;;;8.90;5.33;;;-0.30;99.90;;;;;;5002219;28;20697;-57
2023/12/02 06:10:12;;;;;;;11.00;6.07;;;-0.30;99.90;;;;;;5000780;28;20342;-58
2023/12/02 06:12:37;;;;;;;7.37;4.90;;;-0.30;99.90;;;;;;5000958;28;20199;-55
2023/12/02 06:15:04;;;;;;;9.87;5.43;;;-0.30;99.90;;;;;;4999248;28;20186;-59
2023/12/02 06:17:31;;;;;;;8.17;5.50;;;-0.30;99.90;;;;;;5004078;28;20182;-57
2023/12/02 06:19:57;;;;;;;8.20;5.97;;;-0.30;99.90;;;;;;4997780;28;20449;-58
2023/12/02 06:22:22;;;;;;;9.03;5.90;;;-0.30;99.90;;;;;;4995210;28;20453;-58
2023/12/02 06:24:48;;;;;;;8.57;6.00;;;-0.30;99.90;;;;;;5004490;28;20178;-57
2023/12/02 06:27:13;;;;;;;8.83;5.83;;;-0.30;99.90;;;;;;5005941;28;20198;-57
2023/12/02 06:29:39;;;;;;;9.03;5.80;;;-0.30;99.90;;;;;;5001953;28;20179;-58
2023/12/02 06:32:05;;;;;;;10.60;7.27;;;-0.30;99.90;;;;;;4991624;28;20183;-58
2023/12/02 06:34:30;;;;;;;9.70;6.43;;;-0.30;99.90;;;;;;4999288;28;20215;-57
2023/12/02 06:36:56;;;;;;;9.93;5.90;;;-0.30;99.90;;;;;;4999675;28;20179;-58
2023/12/02 06:39:21;;;;;;;8.77;5.60;;;-0.30;99.90;;;;;;4996288;28;20183;-57
2023/12/02 06:41:47;;;;;;;8.33;5.73;;;-0.30;99.90;;;;;;4996696;28;20237;-59
2023/12/02 06:44:13;;;;;;;9.50;6.10;;;-0.30;99.90;;;;;;4995747;28;20692;-59
2023/12/02 06:46:38;;;;;;;8.87;5.80;;;-0.40;99.90;;;;;;5002237;28;20232;-59
2023/12/02 06:49:04;;;;;;;9.40;5.70;;;-0.40;99.90;;;;;;5007821;28;20178;-60
2023/12/02 06:51:30;;;;;;;8.33;5.53;;;-0.40;99.90;;;;;;5008675;28;20186;-60
2023/12/02 06:53:58;;;;;;;8.27;5.70;;;-0.40;99.90;;;;;;5000579;28;20207;-61
2023/12/02 06:56:25;;;;;;;8.90;5.40;;;-0.40;99.90;;;;;;5005841;28;20186;-60
2023/12/02 06:58:52;;;;;;;8.93;5.70;;;-0.40;99.90;;;;;;5001984;28;20492;-60
2023/12/02 07:01:31;;;;;;;7.37;5.43;;;-0.40;99.90;;;;;;5003515;28;20801;-60
2023/12/02 07:03:59;;;;;;;9.90;6.00;;;-0.40;99.90;;;;;;5000433;28;20462;-60
2023/12/02 07:06:26;;;;;;;12.30;6.03;;;-0.40;99.90;;;;;;5006192;28;20548;-60
2023/12/02 07:08:54;;;;;;;9.90;5.67;;;-0.40;99.90;;;;;;5007416;28;20405;-60
2023/12/02 07:11:20;;;;;;;8.17;6.30;;;-0.50;99.90;;;;;;5007833;28;20420;-60
2023/12/02 07:13:46;;;;;;;9.20;5.57;;;-0.50;99.90;;;;;;4999778;28;20446;-60
2023/12/02 07:16:11;;;;;;;9.07;5.77;;;-0.50;99.90;;;;;;5001480;28;21040;-60
2023/12/02 07:18:38;;;;;;;8.43;5.20;;;-0.50;99.90;;;;;;5017773;28;20312;-60
2023/12/02 07:21:04;;;;;;;9.00;6.00;;;-0.50;99.90;;;;;;5004600;28;20266;-60
2023/12/02 07:23:30;;;;;;;8.87;6.33;;;-0.50;99.90;;;;;;4998855;28;20549;-60
2023/12/02 07:25:56;;;;;;;7.60;5.37;;;-0.50;99.90;;;;;;5002451;28;20558;-59
2023/12/02 07:28:22;;;;;;;7.93;4.80;;;-0.50;99.90;;;;;;4996619;28;20709;-59
2023/12/02 07:30:49;;;;;;;7.67;5.67;;;-0.50;99.90;;;;;;4997177;28;20433;-59
2023/12/02 07:33:14;;;;;;;8.37;5.40;;;-0.60;99.90;;;;;;5004970;28;20449;-57
2023/12/02 07:35:40;;;;;;;7.50;5.23;;;-0.50;99.90;;;;;;5008440;28;20412;-62
2023/12/02 07:38:06;;;;;;;8.10;6.37;;;-0.50;99.90;;;;;;5000615;28;21193;-59
2023/12/02 07:40:32;;;;;;;6.30;4.80;;;-0.50;99.90;;;;;;5004113;28;21118;-59
2023/12/02 07:42:57;;;;;;;7.13;4.70;;;-0.60;99.90;;;;;;4994810;28;20211;-59
2023/12/02 07:45:23;;;;;;;7.33;4.80;;;-0.60;99.90;;;;;;5000067;28;20187;-62
2023/12/02 07:47:49;;;;;;;9.40;5.13;;;-0.60;99.90;;;;;;5012162;28;20305;-59
2023/12/02 07:50:15;;;;;;;7.10;4.90;;;-0.60;99.90;;;;;;5007191;28;20185;-59
2023/12/02 07:52:41;;;;;;;7.03;4.87;;;-0.60;99.90;;;;;;5011034;28;20191;-60
2023/12/02 07:55:07;;;;;;;8.03;5.03;;;-0.60;99.90;;;;;;4996611;28;20456;-60
2023/12/02 07:57:32;;;;;;;9.80;6.10;;;-0.60;99.90;;;;;;5005919;28;20654;-59
2023/12/02 07:59:58;;;;;;;5.50;4.30;;;-0.50;99.90;;;;;;5019333;28;20454;-60
2023/12/02 08:02:24;;;;;;;6.80;4.70;;;-0.50;99.90;;;;;;5006777;28;20179;-60
2023/12/02 08:04:50;;;;;;;5.17;4.30;;;-0.50;99.90;;;;;;5002384;28;20629;-60
2023/12/02 08:07:15;;;;;;;6.30;4.33;;;-0.50;99.90;;;;;;5010644;28;20823;-59
2023/12/02 08:09:41;;;;;;;11.97;4.00;;;-0.50;99.90;;;;;;5007434;28;20174;-59
2023/12/02 08:12:07;;;;;;;4.63;3.90;;;-0.50;99.90;;;;;;5011484;28;20237;-59
2023/12/02 08:14:32;;;;;;;5.83;4.03;;;-0.50;99.90;;;;;;5014652;28;20232;-59
2023/12/02 08:16:58;;;;;;;4.37;3.70;;;-0.50;99.90;;;;;;5010114;28;20428;-61
2023/12/02 08:19:24;;;;;;;3.90;3.50;;;-0.40;99.90;;;;;;5009101;28;20677;-59
2023/12/02 08:21:50;;;;;;;4.17;3.00;;;-0.50;99.90;;;;;;5002824;28;20187;-59
2023/12/02 08:24:16;;;;;;;4.20;3.50;;;-0.50;99.90;;;;;;5006837;28;20186;-59
2023/12/02 08:26:43;;;;;;;4.50;3.53;;;-0.40;99.90;;;;;;5006920;28;20450;-60
2023/12/02 08:29:08;;;;;;;4.97;3.90;;;-0.40;99.90;;;;;;5003828;28;20445;-59
2023/12/02 08:31:34;;;;;;;4.03;3.63;;;-0.40;99.90;;;;;;4997030;28;20413;-59
2023/12/02 08:33:59;;;;;;;5.60;4.27;;;-0.40;99.90;;;;;;5012238;28;20302;-60
2023/12/02 08:36:25;;;;;;;5.10;3.70;;;-0.40;99.90;;;;;;5016142;28;20705;-61
2023/12/02 08:38:51;;;;;;;3.83;3.47;;;-0.40;99.90;;;;;;5014119;28;20168;-60
2023/12/02 08:41:16;;;;;;;4.90;3.70;;;-0.40;99.90;;;;;;5010440;28;20747;-59
2023/12/02 08:43:42;;;;;;;4.60;3.40;;;-0.40;99.90;;;;;;5009235;28;20253;-60
2023/12/02 08:46:18;;;;;;;5.20;3.53;;;-0.40;99.90;;;;;;5013658;28;20174;-60
2023/12/02 08:48:45;;;;;;;4.00;3.10;;;-0.40;99.90;;;;;;5014454;28;20425;-59
2023/12/02 08:51:10;;;;;;;5.23;3.47;;;-0.40;99.90;;;;;;5011116;28;20421;-59
2023/12/02 08:53:36;;;;;;;4.07;3.70;;;-0.40;99.90;;;;;;5011655;28;20955;-59
2023/12/02 08:56:02;;;;;;;4.20;3.60;;;-0.40;99.90;;;;;;4998563;28;20186;-60
2023/12/02 08:58:27;;;;;;;4.50;3.20;;;-0.30;99.90;;;;;;5010118;28;20202;-60
2023/12/02 09:00:53;;;;;;;3.50;3.20;;;-0.30;99.90;;;;;;5011924;28;20174;-59
2023/12/02 09:03:18;;;;;;;4.23;3.50;;;-0.40;99.90;;;;;;5005028;28;20543;-58
2023/12/02 09:05:44;;;;;;;3.87;2.87;;;-0.40;99.90;;;;;;5004432;28;20222;-59
2023/12/02 09:08:10;;;;;;;3.67;3.17;;;-0.40;99.90;;;;;;5018218;28;20712;-60
2023/12/02 09:10:36;;;;;;;4.23;3.30;;;-0.40;99.90;;;;;;5015964;28;20176;-59
2023/12/02 09:13:11;;;;;;;3.97;3.40;;;-0.40;99.90;;;;;;4998020;28;20518;-59
2023/12/02 09:15:41;;;;;;;4.10;3.70;;;-0.40;99.90;;;;;;5007578;28;20177;-60
2023/12/02 09:18:11;;;;;;;3.43;3.13;;;-0.40;99.90;;;;;;5018270;28;20464;-60
2023/12/02 09:20:47;;;;;;;4.33;3.47;;;-0.40;99.90;;;;;;5008230;28;20500;-59
2023/12/02 09:23:17;;;;;;;3.30;3.00;;;-0.40;99.90;;;;;;5015471;28;20433;-61
2023/12/02 09:25:43;;;;;;;4.80;3.27;;;-0.40;99.90;;;;;;5013163;28;20517;-59
2023/12/02 09:28:16;;;;;;;6.10;3.37;;;-0.40;99.90;;;;;;5016621;28;21054;-60
2023/12/02 09:31:04;;;;;;;3.73;3.27;;;-0.40;99.90;;;;;;5016093;28;20178;-58
2023/12/02 09:33:30;;;;;;;4.03;2.77;;;-0.40;99.90;;;;;;5016821;28;20580;-60
2023/12/02 09:35:58;;;;;;;3.90;3.43;;;-0.40;99.90;;;;;;5013796;28;21284;-59
2023/12/02 09:38:24;;;;;;;4.53;3.50;;;-0.40;99.90;;;;;;5004540;28;20443;-60
2023/12/02 09:41:11;;;;;;;4.03;3.10;;;-0.40;99.90;;;;;;5021426;28;20419;-59
2023/12/02 09:44:24;;;;;;;5.07;3.70;;;-0.40;99.90;;;;;;5014165;28;20427;-59
2023/12/02 09:46:50;;;;;;;3.90;3.37;;;-0.30;99.90;;;;;;4980404;28;20950;-59
2023/12/02 09:49:36;;;;;;;4.83;3.80;;;-0.30;99.90;;;;;;4986789;28;20633;-59
2023/12/02 09:52:30;;;;;;;5.73;4.00;;;-0.30;99.90;;;;;;5009018;28;20217;-58
2023/12/02 09:55:07;;;;;;;5.70;3.87;;;-0.30;99.90;;;;;;5010151;28;20955;-60
2023/12/02 09:57:51;;;;;;;4.63;3.60;;;-0.20;99.90;;;;;;5009071;28;20461;-59
2023/12/02 10:00:22;;;;;;;4.20;3.67;;;-0.20;99.90;;;;;;5009692;28;20417;-58
2023/12/02 10:03:07;;;;;;;3.80;3.40;;;-0.20;99.90;;;;;;5008481;28;20880;-58
2023/12/02 10:05:42;;;;;;;4.90;3.97;;;-0.10;99.90;;;;;;5007098;28;21112;-59
2023/12/02 10:08:34;;;;;;;5.63;3.70;;;-0.10;99.90;;;;;;5006148;28;20473;-60
2023/12/02 10:11:10;;;;;;;12.20;6.90;;;-0.10;99.90;;;;;;5014180;28;20453;-60
2023/12/02 10:13:59;;;;;;;9.40;4.90;;;-0.20;99.90;;;;;;4994101;28;20536;-59
2023/12/02 10:16:30;;;;;;;8.33;4.80;;;-0.20;99.90;;;;;;5009691;28;22027;-59
2023/12/02 10:18:59;;;;;;;7.37;4.90;;;-0.20;99.90;;;;;;5009617;28;20417;-60
2023/12/02 10:21:32;;;;;;;6.73;4.87;;;-0.20;99.90;;;;;;5000869;28;20997;-60
2023/12/02 10:24:06;;;;;;;7.27;4.90;;;-0.20;99.90;;;;;;5014313;28;20471;-60
2023/12/02 10:26:45;;;;;;;7.47;4.83;;;-0.30;99.90;;;;;;5009986;28;20460;-59
2023/12/02 10:29:35;;;;;;;8.40;5.30;;;-0.20;99.90;;;;;;5013361;28;20455;-59
2023/12/02 10:32:42;;;;;;;5.63;4.53;;;-0.20;99.90;;;;;;5002000;28;20445;-59
2023/12/02 10:35:12;;;;;;;7.40;5.10;;;-0.20;99.90;;;;;;4981963;28;20439;-60
2023/12/02 10:37:43;;;;;;;6.43;4.10;;;-0.10;99.90;;;;;;5006763;28;20765;-60
2023/12/02 10:40:11;;;;;;;7.67;5.40;;;-0.10;99.90;;;;;;5006563;28;20449;-60
2023/12/02 10:43:07;;;;;;;9.40;5.33;;;-0.10;99.90;;;;;;5009460;28;21025;-60
2023/12/02 10:45:36;;;;;;;9.00;5.60;;;-0.10;99.90;;;;;;5004645;28;20512;-60
2023/12/02 10:48:03;;;;;;;9.60;6.33;;;-0.10;99.90;;;;;;5007547;28;20492;-59
2023/12/02 10:50:29;;;;;;;10.20;6.87;;;-0.20;99.90;;;;;;5020075;28;20451;-60
2023/12/02 10:53:00;;;;;;;8.10;6.03;;;-0.20;99.90;;;;;;5007802;28;20983;-60
2023/12/02 10:55:32;;;;;;;8.90;6.17;;;-0.20;99.90;;;;;;5008258;28;20425;-58
2023/12/02 10:57:59;;;;;;;9.87;5.60;;;-0.30;99.90;;;;;;5007677;28;20477;-60
2023/12/02 11:00:29;;;;;;;8.43;5.83;;;-0.20;99.90;;;;;;5001830;28;20442;-60
2023/12/02 11:03:07;;;;;;;7.43;5.27;;;-0.20;99.90;;;;;;5002664;28;20454;-59
2023/12/02 11:05:43;;;;;;;7.43;5.30;;;-0.20;99.90;;;;;;5011540;28;20441;-59
2023/12/02 11:08:17;;;;;;;7.90;5.23;;;-0.20;99.90;;;;;;5002082;28;20510;-59
2023/12/02 11:10:47;;;;;;;8.17;4.67;;;-0.20;99.90;;;;;;5000345;28;20426;-60
2023/12/02 11:13:19;;;;;;;6.10;4.90;;;-0.20;99.90;;;;;;5005570;28;20497;-59
2023/12/02 11:16:14;;;;;;;7.10;4.70;;;-0.20;99.90;;;;;;5008927;28;20516;-60
2023/12/02 11:18:58;;;;;;;7.97;5.03;;;-0.20;99.90;;;;;;5006319;28;20441;-60
2023/12/02 11:21:46;;;;;;;6.90;4.40;;;-0.20;99.90;;;;;;5001774;28;20927;-60
2023/12/02 11:24:39;;;;;;;5.77;4.30;;;-0.20;99.90;;;;;;5010118;28;20451;-59
2023/12/02 11:27:23;;;;;;;6.90;4.53;;;-0.30;99.90;;;;;;5005584;28;20497;-59
2023/12/02 11:30:19;;;;;;;7.40;5.20;;;-0.20;99.90;;;;;;5005751;28;20430;-57
2023/12/02 11:33:17;;;;;;;5.57;4.47;;;-0.30;99.90;;;;;;5006821;28;20433;-60
2023/12/02 11:36:03;;;;;;;6.13;4.73;;;-0.30;99.90;;;;;;5003309;28;20418;-61
2023/12/02 11:38:32;;;;;;;7.13;4.70;;;-0.30;99.90;;;;;;5011331;28;20458;-60
2023/12/02 11:41:26;;;;;;;5.40;4.37;;;-0.30;99.90;;;;;;5006034;28;20467;-60
2023/12/02 11:44:09;;;;;;;6.20;4.60;;;-0.30;99.90;;;;;;5002357;28;20803;-60
2023/12/02 11:47:04;;;;;;;8.37;5.37;;;-0.30;99.90;;;;;;5000693;28;20861;-60
2023/12/02 11:49:43;;;;;;;6.40;5.33;;;-0.30;99.90;;;;;;5004113;28;20901;-59
2023/12/02 11:52:25;;;;;;;5.30;4.80;;;-0.30;99.90;;;;;;5003112;28;20434;-60
2023/12/02 11:55:19;;;;;;;8.60;5.70;;;-0.40;99.90;;;;;;5000240;28;20427;-59
2023/12/02 11:58:06;;;;;;;9.77;6.53;;;-0.40;99.90;;;;;;5004213;28;20464;-59
2023/12/02 12:00:58;;;;;;;6.80;4.60;;;-0.40;99.90;;;;;;5006230;28;20425;-59
2023/12/02 12:03:58;;;;;;;6.10;4.30;;;-0.40;99.90;;;;;;5007839;28;20663;-60
2023/12/02 12:06:42;;;;;;;8.80;6.00;;;-0.40;99.90;;;;;;5010487;28;20751;-60
2023/12/02 12:09:36;;;;;;;9.27;6.50;;;-0.40;99.90;;;;;;5010724;28;20424;-60
2023/12/02 12:12:06;;;;;;;7.97;5.23;;;-0.40;99.90;;;;;;5006455;28;20425;-59
2023/12/02 12:14:33;;;;;;;12.90;6.20;;;-0.40;99.90;;;;;;5008798;28;20456;-59
2023/12/02 12:16:59;;;;;;;8.83;6.63;;;-0.30;99.90;;;;;;5006477;28;20773;-61
2023/12/02 12:19:25;;;;;;;7.80;6.20;;;-0.30;99.90;;;;;;4998886;28;20455;-59
2023/12/02 12:21:50;;;;;;;9.97;6.40;;;-0.30;99.90;;;;;;5004797;28;20270;-62
2023/12/02 12:24:16;;;;;;;10.83;6.50;;;-0.30;99.90;;;;;;5003155;28;20689;-59
2023/12/02 12:26:44;;;;;;;9.77;6.20;;;-0.20;99.90;;;;;;5004571;28;20608;-59
2023/12/02 12:29:10;;;;;;;6.77;5.37;;;-0.20;99.90;;;;;;5002360;28;20270;-59
2023/12/02 12:31:36;;;;;;;8.80;5.33;;;-0.20;99.90;;;;;;5008513;28;20421;-59
2023/12/02 12:34:03;;;;;;;6.37;4.90;;;-0.20;99.90;;;;;;5004795;28;20433;-58
2023/12/02 12:36:31;;;;;;;10.20;6.47;;;-0.20;99.90;;;;;;5005331;28;20170;-60
2023/12/02 12:38:57;;;;;;;9.47;6.00;;;-0.20;99.90;;;;;;5004320;28;20817;-59
2023/12/02 12:41:31;;;;;;;11.70;6.00;;;-0.20;99.90;;;;;;5009835;28;20918;-59
2023/12/02 12:43:59;;;;;;;10.70;5.97;;;-0.20;99.90;;;;;;5002973;28;21006;-60
2023/12/02 12:46:28;;;;;;;8.33;5.90;;;-0.30;99.90;;;;;;5006620;28;20429;-59
2023/12/02 12:48:54;;;;;;;8.77;5.90;;;-0.30;99.90;;;;;;5007946;28;20409;-59
2023/12/02 12:51:21;;;;;;;8.17;5.57;;;-0.30;99.90;;;;;;5005150;28;20958;-60
2023/12/02 12:53:52;;;;;;;9.43;6.73;;;-0.30;99.90;;;;;;5001122;28;20924;-59
2023/12/02 12:56:39;;;;;;;7.80;5.10;;;-0.30;99.90;;;;;;5001742;28;20467;-59
2023/12/02 12:59:10;;;;;;;8.60;5.27;;;-0.40;99.90;;;;;;5000975;28;20459;-58